Time;durP1;ratioP1;P1;durP2;ratioP2;P2;SDS_P1;SDS_P2;PMS_P1;PMS_P2;Temp;Humidity;BMP_temperature;BMP_pressure;BME280_temperature;BME280_humidity;BME280_pressure;Samples;Min_cycle;Max_cycle;Signal;HPM_P1;HPM_P2
2022/05/16 00:01:11;;;;;;;11.45;4.53;;;12.90;99.90;;;;;;5028539;28;20040;-83
2022/05/16 00:03:37;;;;;;;12.48;4.97;;;12.90;99.90;;;;;;5051923;28;20416;-84
2022/05/16 00:06:03;;;;;;;12.20;5.03;;;12.90;99.90;;;;;;5048355;28;20044;-84
2022/05/16 00:08:29;;;;;;;12.25;4.90;;;12.90;99.90;;;;;;5024460;28;20071;-83
2022/05/16 00:10:56;;;;;;;13.02;4.43;;;12.90;99.90;;;;;;5030533;28;20157;-84
2022/05/16 00:13:22;;;;;;;12.02;4.82;;;12.90;99.90;;;;;;5064034;28;20413;-84
2022/05/16 00:15:48;;;;;;;11.25;4.85;;;12.90;99.90;;;;;;5043182;28;20041;-84
2022/05/16 00:18:14;;;;;;;13.75;4.75;;;12.80;99.90;;;;;;5038150;28;20047;-84
2022/05/16 00:20:40;;;;;;;13.10;5.47;;;12.80;99.90;;;;;;5044498;28;20033;-83
2022/05/16 00:23:05;;;;;;;12.52;4.97;;;12.80;99.90;;;;;;5040743;28;20044;-83
2022/05/16 00:25:31;;;;;;;17.75;4.82;;;12.80;99.90;;;;;;5030301;28;20138;-84
2022/05/16 00:27:57;;;;;;;12.75;5.05;;;12.80;99.90;;;;;;5027369;28;20431;-84
2022/05/16 00:30:23;;;;;;;12.50;5.00;;;12.80;99.90;;;;;;5051376;28;20440;-84
2022/05/16 00:32:49;;;;;;;14.65;5.20;;;12.80;99.90;;;;;;5028342;28;20041;-84
2022/05/16 00:35:19;;;;;;;10.20;4.60;;;12.80;99.90;;;;;;5047324;28;20047;-83
2022/05/16 00:37:44;;;;;;;12.05;5.22;;;12.70;99.90;;;;;;5050572;28;20033;-83
2022/05/16 00:40:11;;;;;;;14.43;5.40;;;12.70;99.90;;;;;;5047868;28;20421;-84
2022/05/16 00:42:39;;;;;;;12.15;4.78;;;12.70;99.90;;;;;;5031767;28;20428;-84
2022/05/16 00:45:05;;;;;;;12.88;5.15;;;12.70;99.90;;;;;;5039103;28;20497;-83
2022/05/16 00:47:31;;;;;;;11.65;4.75;;;12.70;99.90;;;;;;5036285;28;20036;-84
2022/05/16 00:50:00;;;;;;;11.80;4.90;;;12.60;99.90;;;;;;5023940;28;20036;-84
2022/05/16 00:52:46;;;;;;;11.73;4.30;;;12.60;99.90;;;;;;5045167;28;20036;-84
2022/05/16 00:55:26;;;;;;;11.95;4.32;;;12.60;99.90;;;;;;5075343;28;20044;-84
2022/05/16 00:57:56;;;;;;;12.77;4.95;;;12.60;99.90;;;;;;5041144;28;20037;-84
2022/05/16 01:00:33;;;;;;;11.38;4.10;;;12.50;99.90;;;;;;5056445;28;20130;-84
2022/05/16 01:05:50;;;;;;;12.35;4.63;;;12.50;99.90;;;;;;5063266;28;20053;-84
2022/05/16 01:08:22;;;;;;;13.27;4.75;;;12.50;99.90;;;;;;5033629;28;20041;-84
2022/05/16 01:10:48;;;;;;;10.60;4.20;;;12.40;99.90;;;;;;5038778;28;20037;-84
2022/05/16 01:13:14;;;;;;;8.63;3.88;;;12.40;99.90;;;;;;5035533;28;20033;-84
2022/05/16 01:15:46;;;;;;;11.55;3.90;;;12.40;99.90;;;;;;5040027;28;20521;-83
2022/05/16 01:18:16;;;;;;;10.20;3.90;;;12.40;99.90;;;;;;5043830;28;20505;-84
2022/05/16 01:21:12;;;;;;;10.45;4.38;;;12.30;99.90;;;;;;5041163;28;20040;-84
2022/05/16 01:24:01;;;;;;;9.88;3.70;;;12.30;99.90;;;;;;5039788;28;20066;-83
2022/05/16 01:26:28;;;;;;;13.57;3.80;;;12.30;99.90;;;;;;5044467;28;20044;-84
2022/05/16 01:28:54;;;;;;;12.10;3.80;;;12.20;99.90;;;;;;5065313;28;20150;-83
2022/05/16 01:31:20;;;;;;;9.23;3.33;;;12.20;99.90;;;;;;5049118;28;20572;-84
2022/05/16 01:33:46;;;;;;;9.48;3.75;;;12.20;99.90;;;;;;5028500;28;20460;-83
2022/05/16 01:36:12;;;;;;;10.95;3.60;;;12.20;99.90;;;;;;5031038;28;20040;-83
2022/05/16 01:38:39;;;;;;;9.02;3.35;;;12.10;99.90;;;;;;5038311;28;20490;-84
2022/05/16 01:41:13;;;;;;;9.57;3.40;;;12.10;99.90;;;;;;5033121;28;20040;-84
2022/05/16 01:43:48;;;;;;;10.30;3.53;;;12.10;99.90;;;;;;5055650;28;20044;-84
2022/05/16 01:46:20;;;;;;;10.07;3.70;;;12.10;99.90;;;;;;5056049;28;20041;-84
2022/05/16 01:48:46;;;;;;;9.95;3.20;;;12.00;99.90;;;;;;5045969;28;20040;-83
2022/05/16 01:51:13;;;;;;;8.35;3.25;;;12.00;99.90;;;;;;5052020;28;20494;-84
2022/05/16 01:53:40;;;;;;;10.93;3.40;;;12.00;99.90;;;;;;5061240;28;20105;-84
2022/05/16 01:56:07;;;;;;;10.57;3.28;;;12.00;99.90;;;;;;5030035;28;20063;-83
2022/05/16 01:58:33;;;;;;;9.02;3.20;;;11.90;99.90;;;;;;5061896;28;20133;-84
2022/05/16 02:00:59;;;;;;;10.90;3.60;;;11.90;99.90;;;;;;5044591;28;20033;-84
2022/05/16 02:03:25;;;;;;;8.25;3.20;;;11.90;99.90;;;;;;5050804;28;20139;-84
2022/05/16 02:05:51;;;;;;;7.63;2.78;;;11.80;99.90;;;;;;5043588;28;20092;-83
2022/05/16 02:08:17;;;;;;;9.18;3.20;;;11.90;99.90;;;;;;5048407;28;20071;-84
2022/05/16 02:10:44;;;;;;;9.25;3.00;;;11.80;99.90;;;;;;5037154;28;20036;-84
2022/05/16 02:13:11;;;;;;;9.05;3.00;;;11.80;99.90;;;;;;5032780;28;20049;-84
2022/05/16 02:15:39;;;;;;;8.40;2.72;;;11.80;99.90;;;;;;5040892;28;20052;-84
2022/05/16 02:18:06;;;;;;;8.55;2.67;;;11.80;99.90;;;;;;5045253;28;20091;-84
2022/05/16 02:20:32;;;;;;;7.15;2.80;;;11.80;99.90;;;;;;5048933;28;20043;-84
2022/05/16 02:25:45;;;;;;;8.55;2.83;;;11.10;99.90;;;;;;5044584;28;20048;-84
2022/05/16 02:28:16;;;;;;;9.00;2.65;;;11.70;99.90;;;;;;5060718;28;20815;-83
2022/05/16 02:30:43;;;;;;;8.00;3.03;;;11.70;99.90;;;;;;5028295;28;20486;-84
2022/05/16 02:33:10;;;;;;;8.05;2.80;;;11.70;99.90;;;;;;5028707;28;20318;-84
2022/05/16 02:35:36;;;;;;;10.63;2.70;;;11.70;99.90;;;;;;5020659;28;20036;-84
2022/05/16 02:38:05;;;;;;;8.07;2.80;;;11.60;99.90;;;;;;5043206;28;20029;-84
2022/05/16 02:40:32;;;;;;;8.13;2.90;;;11.60;99.90;;;;;;5041944;28;20693;-84
2022/05/16 02:42:59;;;;;;;7.85;2.58;;;11.60;99.90;;;;;;5046121;28;20123;-84
2022/05/16 02:45:25;;;;;;;9.50;2.70;;;11.60;99.90;;;;;;5055984;28;20083;-83
2022/05/16 02:47:51;;;;;;;9.10;3.17;;;11.50;99.90;;;;;;5030368;28;20033;-84
2022/05/16 02:50:18;;;;;;;7.03;2.45;;;11.60;99.90;;;;;;5048753;28;20417;-83
2022/05/16 02:52:44;;;;;;;8.35;2.90;;;11.60;99.90;;;;;;5011965;28;20120;-84
2022/05/16 02:55:10;;;;;;;7.93;2.65;;;11.60;99.90;;;;;;5042942;28;20540;-83
2022/05/16 02:57:36;;;;;;;9.52;2.75;;;11.60;99.90;;;;;;5033821;28;20048;-84
2022/05/16 03:00:04;;;;;;;8.27;2.83;;;11.50;99.90;;;;;;5047214;28;20413;-84
2022/05/16 03:02:30;;;;;;;9.10;2.60;;;11.50;99.90;;;;;;5039436;28;20040;-83
2022/05/16 03:04:56;;;;;;;8.38;2.60;;;11.50;99.90;;;;;;5030356;28;20497;-84
2022/05/16 03:07:22;;;;;;;8.57;2.65;;;11.50;99.90;;;;;;5044354;28;20094;-83
2022/05/16 03:09:48;;;;;;;7.45;2.53;;;11.50;99.90;;;;;;5040360;28;20033;-84
2022/05/16 03:12:13;;;;;;;8.32;2.67;;;11.50;99.90;;;;;;5012467;28;20795;-85
2022/05/16 03:14:40;;;;;;;9.65;2.80;;;11.40;99.90;;;;;;5041269;28;20253;-83
2022/05/16 03:17:06;;;;;;;7.47;2.50;;;11.50;99.90;;;;;;5021176;28;20497;-83
2022/05/16 03:19:34;;;;;;;8.15;2.70;;;11.50;99.90;;;;;;5050931;28;20383;-84
2022/05/16 03:21:59;;;;;;;7.82;2.65;;;11.40;99.90;;;;;;5049488;28;20112;-83
2022/05/16 03:24:25;;;;;;;6.72;2.30;;;11.40;99.90;;;;;;5027378;28;20047;-83
2022/05/16 03:26:51;;;;;;;6.70;2.70;;;11.40;99.90;;;;;;5050103;28;20077;-84
2022/05/16 03:29:17;;;;;;;10.00;2.58;;;11.40;99.90;;;;;;5039385;28;20041;-84
2022/05/16 03:31:43;;;;;;;10.23;2.90;;;11.40;99.90;;;;;;5048344;28;20440;-84
2022/05/16 03:34:10;;;;;;;8.70;2.53;;;11.30;99.90;;;;;;5044891;28;20040;-84
2022/05/16 03:36:37;;;;;;;8.25;2.58;;;11.40;99.90;;;;;;5048507;28;20471;-84
2022/05/16 03:41:49;;;;;;;9.15;2.60;;;11.30;99.90;;;;;;5032652;28;20056;-84
2022/05/16 03:44:15;;;;;;;7.88;2.55;;;11.40;99.90;;;;;;5025334;28;20040;-83
2022/05/16 03:46:41;;;;;;;8.18;2.67;;;11.30;99.90;;;;;;5046180;28;20039;-84
2022/05/16 03:49:07;;;;;;;8.15;2.45;;;11.20;99.90;;;;;;5039875;28;20102;-84
2022/05/16 03:51:33;;;;;;;7.82;2.70;;;11.20;99.90;;;;;;5040018;28;20040;-84
2022/05/16 03:53:59;;;;;;;8.63;2.85;;;11.20;99.90;;;;;;5042158;28;20114;-83
2022/05/16 03:56:27;;;;;;;8.65;2.85;;;11.20;99.90;;;;;;5043678;28;20416;-84
2022/05/16 03:58:54;;;;;;;8.90;2.50;;;11.20;99.90;;;;;;5045234;28;20035;-83
2022/05/16 04:01:21;;;;;;;7.40;2.60;;;11.20;99.90;;;;;;5030776;28;20040;-84
2022/05/16 04:03:47;;;;;;;8.98;2.83;;;11.20;99.90;;;;;;5055653;28;20524;-84
2022/05/16 04:06:16;;;;;;;9.70;2.60;;;11.20;99.90;;;;;;5050084;28;20072;-84
2022/05/16 04:08:43;;;;;;;8.70;2.60;;;11.30;99.90;;;;;;5042786;28;20032;-84
2022/05/16 04:11:11;;;;;;;9.07;2.72;;;11.30;99.90;;;;;;5027856;28;20060;-84
2022/05/16 04:13:37;;;;;;;9.43;2.45;;;11.40;99.90;;;;;;5029710;28;20040;-84
2022/05/16 04:16:04;;;;;;;8.68;2.60;;;11.40;99.90;;;;;;5034034;28;20105;-85
2022/05/16 04:18:31;;;;;;;8.80;2.38;;;11.40;99.90;;;;;;5044415;28;20130;-84
2022/05/16 04:20:57;;;;;;;8.60;2.90;;;11.40;99.90;;;;;;5033764;28;20037;-84
2022/05/16 04:23:22;;;;;;;9.60;2.85;;;11.50;99.90;;;;;;5027734;28;20109;-84
2022/05/16 04:25:48;;;;;;;7.35;2.50;;;11.50;99.90;;;;;;5031683;28;20032;-84
2022/05/16 04:28:14;;;;;;;10.20;2.55;;;11.50;99.90;;;;;;5049946;28;20044;-84
2022/05/16 04:30:40;;;;;;;7.90;2.78;;;11.60;99.90;;;;;;5033152;28;20125;-85
2022/05/16 04:33:07;;;;;;;8.75;2.80;;;11.70;99.90;;;;;;5063527;28;20053;-83
2022/05/16 04:35:33;;;;;;;8.50;2.70;;;11.70;99.90;;;;;;5032807;28;20509;-84
2022/05/16 04:37:59;;;;;;;10.20;2.92;;;11.80;99.90;;;;;;5036806;28;20551;-84
2022/05/16 04:40:25;;;;;;;7.88;2.40;;;11.80;99.90;;;;;;5007275;28;20056;-84
2022/05/16 04:42:52;;;;;;;8.95;2.88;;;11.90;99.90;;;;;;5045290;28;20084;-85
2022/05/16 04:45:26;;;;;;;9.63;2.85;;;12.00;99.90;;;;;;5022509;28;20037;-84
2022/05/16 04:47:55;;;;;;;7.47;2.80;;;12.00;99.90;;;;;;5045207;28;20025;-84
2022/05/16 04:50:31;;;;;;;8.85;2.50;;;12.10;99.90;;;;;;5040539;28;20208;-84
2022/05/16 04:52:58;;;;;;;8.45;2.70;;;12.10;99.90;;;;;;5047830;28;20056;-83
2022/05/16 04:55:26;;;;;;;10.57;3.05;;;12.20;99.90;;;;;;5056472;28;20504;-84
2022/05/16 04:57:52;;;;;;;8.50;2.67;;;12.20;99.90;;;;;;5051645;28;20032;-85
2022/05/16 05:00:20;;;;;;;8.65;2.70;;;12.40;99.90;;;;;;5026727;28;20408;-84
2022/05/16 05:02:47;;;;;;;8.68;2.85;;;12.40;99.90;;;;;;5031949;28;20052;-84
2022/05/16 05:05:13;;;;;;;7.72;2.70;;;12.40;99.90;;;;;;5058454;28;20106;-83
2022/05/16 05:07:39;;;;;;;8.00;2.70;;;12.50;99.90;;;;;;5004168;28;20041;-84
2022/05/16 05:15:38;;;;;;;9.95;2.95;;;12.40;99.90;;;;;;5052844;28;20284;-84
2022/05/16 05:18:04;;;;;;;8.25;2.78;;;12.50;99.90;;;;;;5035601;28;20485;-83
2022/05/16 05:20:32;;;;;;;11.52;2.85;;;12.60;99.90;;;;;;5059757;28;20033;-83
2022/05/16 05:22:59;;;;;;;7.40;2.70;;;12.60;99.90;;;;;;5023883;28;20095;-84
2022/05/16 05:25:25;;;;;;;8.13;2.50;;;12.80;99.90;;;;;;5033609;28;20124;-84
2022/05/16 05:27:51;;;;;;;10.02;2.70;;;12.70;99.90;;;;;;5022404;28;20072;-84
2022/05/16 05:30:26;;;;;;;10.88;3.13;;;12.70;99.90;;;;;;5029567;28;20560;-83
2022/05/16 05:32:52;;;;;;;8.02;2.90;;;12.80;99.90;;;;;;5031105;28;20032;-84
2022/05/16 05:35:19;;;;;;;9.88;2.67;;;12.90;99.90;;;;;;5040707;28;20040;-83
2022/05/16 05:37:46;;;;;;;8.25;2.88;;;12.90;99.90;;;;;;5042470;28;20138;-84
2022/05/16 05:40:13;;;;;;;8.35;2.97;;;13.10;99.90;;;;;;5061459;28;20057;-84
2022/05/16 05:42:40;;;;;;;7.75;2.80;;;13.00;99.90;;;;;;5045775;28;20481;-85
2022/05/16 05:45:07;;;;;;;11.45;3.05;;;13.10;99.90;;;;;;5069710;28;20119;-84
2022/05/16 05:47:33;;;;;;;9.93;2.65;;;13.20;99.90;;;;;;5037462;28;20072;-84
2022/05/16 05:50:00;;;;;;;8.32;2.70;;;13.30;99.90;;;;;;5069620;28;20082;-84
2022/05/16 05:52:28;;;;;;;9.40;2.72;;;13.40;99.90;;;;;;5052873;28;20048;-84
2022/05/16 05:54:55;;;;;;;10.88;2.85;;;13.50;99.90;;;;;;5053770;28;20499;-85
2022/05/16 05:57:21;;;;;;;8.30;2.75;;;13.50;99.90;;;;;;5061628;28;20048;-84
2022/05/16 05:59:47;;;;;;;10.18;2.55;;;13.70;99.90;;;;;;5041342;28;20038;-83
2022/05/16 06:02:14;;;;;;;8.10;2.47;;;13.90;99.90;;;;;;5012617;28;20110;-85
2022/05/16 06:04:40;;;;;;;8.95;2.95;;;14.10;99.90;;;;;;5033402;28;20434;-85
2022/05/16 06:07:06;;;;;;;8.50;2.70;;;14.10;99.90;;;;;;5043181;28;20083;-85
2022/05/16 06:09:32;;;;;;;7.60;2.45;;;14.20;99.90;;;;;;5050782;28;20037;-85
2022/05/16 06:11:59;;;;;;;8.38;3.03;;;14.20;99.90;;;;;;5037490;28;20613;-83
2022/05/16 06:14:27;;;;;;;8.68;2.85;;;14.10;99.90;;;;;;5029858;28;20080;-84
2022/05/16 06:16:54;;;;;;;10.43;3.15;;;14.30;99.90;;;;;;5060122;28;20055;-83
2022/05/16 06:19:20;;;;;;;10.10;2.85;;;14.40;99.90;;;;;;5056036;28;20489;-87
2022/05/16 06:21:46;;;;;;;9.02;2.83;;;14.60;99.90;;;;;;5065211;28;20051;-84
2022/05/16 06:27:00;;;;;;;9.95;2.88;;;15.00;99.90;;;;;;5052880;28;20385;-84
2022/05/16 06:29:26;;;;;;;8.13;2.70;;;15.00;99.90;;;;;;5032675;28;20036;-86
2022/05/16 06:31:53;;;;;;;8.70;2.58;;;15.00;99.90;;;;;;5049860;28;20500;-85
2022/05/16 06:34:19;;;;;;;9.90;2.90;;;15.10;99.90;;;;;;5045099;28;20124;-85
2022/05/16 06:36:45;;;;;;;9.82;3.10;;;15.00;99.90;;;;;;5041028;28;20040;-84
2022/05/16 06:39:11;;;;;;;8.05;2.63;;;15.00;99.90;;;;;;5044832;28;20040;-85
2022/05/16 06:41:37;;;;;;;10.88;2.80;;;14.90;99.90;;;;;;5044840;28;20048;-84
2022/05/16 06:44:03;;;;;;;14.43;2.92;;;15.00;99.90;;;;;;5028820;28;20044;-84
2022/05/16 06:46:29;;;;;;;12.18;2.92;;;15.00;99.90;;;;;;5053804;28;20037;-84
2022/05/16 06:48:55;;;;;;;10.07;3.03;;;15.20;99.90;;;;;;5046671;28;20029;-85
2022/05/16 06:51:20;;;;;;;9.88;2.78;;;15.30;99.90;;;;;;5048645;28;20392;-85
2022/05/16 06:53:46;;;;;;;9.35;2.83;;;15.40;99.90;;;;;;5042212;28;20098;-84
2022/05/16 06:56:13;;;;;;;11.10;2.83;;;15.60;99.90;;;;;;5038784;28;20048;-84
2022/05/16 06:58:39;;;;;;;9.23;2.95;;;15.80;99.90;;;;;;5051117;28;20037;-85
2022/05/16 07:01:05;;;;;;;10.15;3.05;;;15.90;99.90;;;;;;5014489;28;20051;-84
2022/05/16 07:03:32;;;;;;;9.73;2.60;;;16.10;99.90;;;;;;5034803;28;20056;-86
2022/05/16 07:05:59;;;;;;;9.98;2.97;;;16.20;99.90;;;;;;5050268;28;20045;-85
2022/05/16 07:08:25;;;;;;;11.88;3.13;;;16.40;99.90;;;;;;5065826;28;20392;-85
2022/05/16 07:10:51;;;;;;;8.82;2.45;;;16.50;99.90;;;;;;5054571;28;20032;-86
2022/05/16 07:13:17;;;;;;;10.02;2.58;;;16.70;99.90;;;;;;5046484;28;20051;-85
2022/05/16 07:15:43;;;;;;;11.70;3.38;;;16.80;99.90;;;;;;5016232;28;20120;-84
2022/05/16 07:18:09;;;;;;;9.77;2.85;;;16.90;99.90;;;;;;5045208;28;20037;-84
2022/05/16 07:20:35;;;;;;;14.88;3.20;;;17.00;99.90;;;;;;5045685;28;20036;-85
2022/05/16 07:23:02;;;;;;;9.02;2.70;;;17.20;99.90;;;;;;5056206;28;20048;-85
2022/05/16 07:25:29;;;;;;;9.50;2.50;;;17.30;99.90;;;;;;5063313;28;20087;-85
2022/05/16 07:27:59;;;;;;;11.57;2.97;;;17.50;99.90;;;;;;5060625;28;20040;-85
2022/05/16 07:30:30;;;;;;;8.30;2.70;;;17.60;99.90;;;;;;5033100;28;20508;-87
2022/05/16 07:32:57;;;;;;;8.00;2.65;;;17.80;99.90;;;;;;5044867;28;20036;-87
2022/05/16 07:35:33;;;;;;;12.10;2.97;;;17.90;99.90;;;;;;5052068;28;20509;-89
2022/05/16 07:37:59;;;;;;;11.50;2.85;;;17.90;99.90;;;;;;5053750;28;20481;-84
2022/05/16 07:40:31;;;;;;;9.85;2.97;;;18.00;99.90;;;;;;5038563;28;20056;-85
2022/05/16 07:42:56;;;;;;;9.88;2.67;;;18.00;99.90;;;;;;5062752;28;20058;-85
2022/05/16 07:45:23;;;;;;;11.68;2.67;;;18.10;99.90;;;;;;5048267;28;20048;-85
2022/05/16 07:47:49;;;;;;;7.22;2.45;;;18.30;99.90;;;;;;5039333;28;20091;-86
2022/05/16 07:50:15;;;;;;;11.65;2.80;;;18.40;99.90;;;;;;5047957;28;20497;-85
2022/05/16 07:52:46;;;;;;;11.93;3.03;;;18.60;99.90;;;;;;5057868;28;20119;-87
2022/05/16 07:55:13;;;;;;;8.77;2.58;;;18.70;99.90;;;;;;5039777;28;20041;-86
2022/05/16 07:57:38;;;;;;;10.18;2.90;;;19.00;99.90;;;;;;5032381;28;20043;-86
2022/05/16 08:00:05;;;;;;;10.32;3.25;;;19.00;99.90;;;;;;5010570;28;20041;-87
2022/05/16 08:02:31;;;;;;;9.50;2.80;;;19.10;99.90;;;;;;5036274;28;20041;-86
2022/05/16 08:04:57;;;;;;;10.13;2.92;;;19.20;99.90;;;;;;5050085;28;20045;-85
2022/05/16 08:07:22;;;;;;;12.30;3.00;;;19.30;99.90;;;;;;5017336;28;20033;-87
2022/05/16 08:12:35;;;;;;;8.98;2.65;;;19.40;99.90;;;;;;5040599;28;20044;-84
2022/05/16 08:15:01;;;;;;;11.52;3.05;;;19.50;99.90;;;;;;5041806;28;20105;-83
2022/05/16 08:17:30;;;;;;;8.68;2.60;;;19.60;99.90;;;;;;5034282;28;20036;-89
2022/05/16 08:19:56;;;;;;;10.77;2.83;;;19.60;99.90;;;;;;5041187;28;20493;-85
2022/05/16 08:22:28;;;;;;;9.63;2.80;;;19.80;99.90;;;;;;5033691;28;20041;-85
2022/05/16 08:24:55;;;;;;;8.95;2.55;;;19.90;99.90;;;;;;5041017;28;20091;-87
2022/05/16 08:27:20;;;;;;;10.65;2.70;;;20.00;99.90;;;;;;5042119;28;20098;-86
2022/05/16 08:29:46;;;;;;;7.93;2.58;;;20.00;99.90;;;;;;5067347;28;20037;-86
2022/05/16 08:32:16;;;;;;;12.13;2.88;;;20.10;99.90;;;;;;5030198;28;20397;-85
2022/05/16 08:34:42;;;;;;;10.80;2.92;;;20.20;99.90;;;;;;5045130;28;20040;-84
2022/05/16 08:39:52;;;;;;;10.75;2.65;;;20.40;99.90;;;;;;5044078;28;20413;-83
2022/05/16 08:42:50;;;;;;;9.77;2.80;;;20.50;99.90;;;;;;5037058;28;20067;-85
2022/05/16 08:45:37;;;;;;;10.60;2.53;;;20.70;99.90;;;;;;5047083;28;20044;-84
2022/05/16 08:48:43;;;;;;;11.73;2.90;;;20.80;99.90;;;;;;5039505;28;20044;-84
2022/05/16 08:51:17;;;;;;;9.50;2.92;;;21.00;99.90;;;;;;5019775;28;20526;-85
2022/05/16 08:54:31;;;;;;;8.52;2.70;;;21.10;99.90;;;;;;5049150;28;20072;-84
2022/05/16 08:57:00;;;;;;;11.32;2.65;;;21.20;99.90;;;;;;5020417;28;20037;-86
2022/05/16 08:59:28;;;;;;;12.50;2.75;;;21.30;99.90;;;;;;5062105;28;20105;-85
2022/05/16 09:01:59;;;;;;;10.70;2.85;;;21.50;99.90;;;;;;5040381;28;20051;-86
2022/05/16 09:04:52;;;;;;;13.13;2.85;;;21.60;99.90;;;;;;5055036;28;20033;-86
2022/05/16 09:07:34;;;;;;;9.90;2.90;;;21.80;99.90;;;;;;5038244;28;20041;-88
2022/05/16 09:10:02;;;;;;;10.32;2.67;;;22.00;99.90;;;;;;5067084;28;20044;-88
2022/05/16 09:13:12;;;;;;;11.27;3.17;;;22.20;99.90;;;;;;5055367;28;20147;-86
2022/05/16 09:16:07;;;;;;;9.55;2.40;;;22.50;99.90;;;;;;5040953;28;20060;-87
2022/05/16 09:18:44;;;;;;;11.60;2.50;;;22.60;99.90;;;;;;5065869;28;20037;-86
2022/05/16 09:21:14;;;;;;;8.55;2.58;;;22.80;99.90;;;;;;5061067;28;20117;-85
2022/05/16 09:24:11;;;;;;;10.73;2.65;;;22.80;99.90;;;;;;5060153;28;20524;-84
2022/05/16 09:26:53;;;;;;;11.35;2.60;;;22.80;99.90;;;;;;5062602;28;20043;-85
2022/05/16 09:29:31;;;;;;;10.45;2.78;;;22.80;99.90;;;;;;5046570;28;20029;-84
2022/05/16 09:32:05;;;;;;;11.52;2.92;;;22.90;99.90;;;;;;5052673;28;20059;-84
2022/05/16 09:34:32;;;;;;;11.30;2.83;;;23.00;99.90;;;;;;5056594;28;20075;-86
2022/05/16 09:36:58;;;;;;;12.60;2.92;;;23.00;99.90;;;;;;5038795;28;20497;-86
2022/05/16 09:39:31;;;;;;;11.23;2.80;;;23.10;99.90;;;;;;5054934;28;20044;-86
2022/05/16 09:42:25;;;;;;;12.38;2.60;;;23.20;99.90;;;;;;5039724;28;20053;-86
2022/05/16 09:44:54;;;;;;;9.68;2.55;;;23.20;99.90;;;;;;5055341;28;20052;-86
2022/05/16 09:47:36;;;;;;;9.65;2.47;;;23.30;99.90;;;;;;5044772;28;20048;-86
2022/05/16 09:50:24;;;;;;;13.10;2.83;;;23.40;99.90;;;;;;5054767;28;20055;-86
2022/05/16 09:53:02;;;;;;;9.90;2.60;;;23.40;99.90;;;;;;5047807;28;20458;-87
2022/05/16 09:55:33;;;;;;;10.20;2.67;;;23.40;99.90;;;;;;5049709;28;20052;-86
2022/05/16 09:58:02;;;;;;;10.98;2.83;;;23.40;99.90;;;;;;5058211;28;20040;-89
2022/05/16 10:00:38;;;;;;;10.30;3.03;;;23.60;99.90;;;;;;5062777;28;20045;-86
2022/05/16 10:03:22;;;;;;;13.07;2.90;;;23.80;99.90;;;;;;5045289;28;20044;-85
2022/05/16 10:05:51;;;;;;;8.68;2.50;;;23.90;99.90;;;;;;5046173;28;20114;-83
2022/05/16 10:08:38;;;;;;;10.52;2.85;;;24.00;99.90;;;;;;5044833;28;20201;-86
2022/05/16 10:11:28;;;;;;;10.18;2.55;;;23.90;99.90;;;;;;5039348;28;20033;-86
2022/05/16 10:13:55;;;;;;;9.63;2.40;;;23.70;99.00;;;;;;5038327;28;20055;-86
2022/05/16 10:16:22;;;;;;;8.85;2.65;;;23.70;99.90;;;;;;5029465;28;20041;-84
2022/05/16 10:18:55;;;;;;;10.95;2.78;;;23.80;99.90;;;;;;5031391;28;20045;-87
2022/05/16 10:21:29;;;;;;;10.43;2.75;;;24.00;99.90;;;;;;5057774;28;20287;-85
2022/05/16 10:23:56;;;;;;;11.05;2.72;;;24.00;99.90;;;;;;5039104;28;20040;-87
2022/05/16 10:26:30;;;;;;;8.23;2.45;;;24.20;99.90;;;;;;5044336;28;20491;-86
2022/05/16 10:29:06;;;;;;;10.45;2.70;;;24.70;98.90;;;;;;5044935;28;20040;-86
2022/05/16 10:34:36;;;;;;;10.98;3.38;;;24.80;97.00;;;;;;5071491;28;20144;-84
2022/05/16 10:37:02;;;;;;;11.60;2.85;;;25.10;96.20;;;;;;5043429;28;20033;-84
2022/05/16 10:39:30;;;;;;;8.40;2.60;;;25.20;96.00;;;;;;5030028;28;20052;-85
2022/05/16 10:42:05;;;;;;;11.35;2.83;;;25.40;95.50;;;;;;5025350;28;20060;-86
2022/05/16 10:44:52;;;;;;;11.27;2.70;;;25.30;94.40;;;;;;5038092;28;20052;-85
2022/05/16 10:47:36;;;;;;;10.50;2.70;;;25.20;94.80;;;;;;5046942;28;20052;-84
2022/05/16 10:50:09;;;;;;;12.55;3.08;;;25.20;94.10;;;;;;5047922;28;20029;-86
2022/05/16 10:52:41;;;;;;;12.52;2.83;;;25.20;94.60;;;;;;5064475;28;20095;-85
2022/05/16 10:55:08;;;;;;;10.23;2.83;;;25.30;93.90;;;;;;5055663;28;20056;-86
2022/05/16 10:58:08;;;;;;;10.55;2.40;;;25.40;94.00;;;;;;5042449;28;20387;-87
2022/05/16 11:00:40;;;;;;;9.23;2.75;;;25.40;92.20;;;;;;5059171;28;20059;-85
2022/05/16 11:03:54;;;;;;;9.23;2.70;;;25.50;92.90;;;;;;5042562;28;20041;-84
2022/05/16 11:06:47;;;;;;;8.20;2.38;;;25.50;91.80;;;;;;5007891;28;20056;-85
2022/05/16 11:09:33;;;;;;;8.75;2.50;;;25.50;92.10;;;;;;5039601;28;20041;-86
2022/05/16 11:12:02;;;;;;;12.05;2.90;;;25.50;91.80;;;;;;5068893;28;20032;-85
2022/05/16 11:15:14;;;;;;;11.73;3.00;;;25.60;92.30;;;;;;5050122;28;20072;-85
2022/05/16 11:17:58;;;;;;;8.35;2.38;;;25.70;91.40;;;;;;5044925;28;20049;-85
2022/05/16 11:20:42;;;;;;;10.48;2.33;;;25.70;91.70;;;;;;5058117;28;20041;-85
2022/05/16 11:23:26;;;;;;;11.02;2.70;;;25.80;92.00;;;;;;5058813;28;20477;-84
2022/05/16 11:26:17;;;;;;;9.70;2.50;;;25.80;91.40;;;;;;5050803;28;20127;-84
2022/05/16 11:29:17;;;;;;;9.15;2.58;;;25.70;91.40;;;;;;5039067;28;20300;-84
2022/05/16 11:31:42;;;;;;;8.93;2.70;;;25.60;91.10;;;;;;5065026;28;20040;-83
2022/05/16 11:34:15;;;;;;;8.45;2.58;;;25.50;91.30;;;;;;5061701;28;20074;-82
2022/05/16 11:37:08;;;;;;;10.35;2.72;;;25.40;91.60;;;;;;5052804;28;20045;-82
2022/05/16 11:39:49;;;;;;;10.18;2.60;;;25.20;90.50;;;;;;5060307;28;20140;-85
2022/05/16 11:42:37;;;;;;;7.53;2.33;;;25.10;90.80;;;;;;5053571;28;20529;-83
2022/05/16 11:45:53;;;;;;;10.15;2.60;;;24.90;90.50;;;;;;5048766;28;20137;-83
2022/05/16 11:48:33;;;;;;;8.90;2.60;;;24.80;90.30;;;;;;5048155;28;20040;-85
2022/05/16 11:51:14;;;;;;;8.60;2.60;;;24.70;91.10;;;;;;5059954;28;20185;-84
2022/05/16 11:53:54;;;;;;;8.90;2.30;;;24.50;91.70;;;;;;5059292;28;20040;-84
2022/05/16 12:02:26;;;;;;;8.90;2.60;;;23.10;91.90;;;;;;5057253;27;1335623;-84
2022/05/16 12:05:07;;;;;;;9.25;2.50;;;24.20;92.40;;;;;;5040233;28;20040;-85
2022/05/16 12:07:46;;;;;;;10.48;2.65;;;24.20;92.90;;;;;;5041988;28;20516;-84
2022/05/16 12:10:15;;;;;;;12.00;2.95;;;24.20;93.50;;;;;;5065063;28;20437;-83
2022/05/16 12:13:08;;;;;;;9.02;2.70;;;24.20;94.30;;;;;;5053844;28;20054;-85
2022/05/16 12:15:34;;;;;;;10.00;2.65;;;24.20;94.70;;;;;;5038378;28;20047;-84
2022/05/16 12:18:27;;;;;;;10.32;2.72;;;24.20;95.20;;;;;;5055448;28;20432;-85
2022/05/16 12:20:59;;;;;;;7.95;2.30;;;24.20;95.40;;;;;;5059571;28;20039;-85
2022/05/16 12:24:10;;;;;;;11.52;2.60;;;24.20;95.50;;;;;;5049410;28;20498;-83
2022/05/16 12:26:38;;;;;;;9.48;2.80;;;24.30;95.70;;;;;;5016439;28;20094;-84
2022/05/16 12:29:11;;;;;;;10.45;2.80;;;24.20;96.00;;;;;;5034877;28;20452;-86
2022/05/16 12:31:49;;;;;;;11.07;2.70;;;24.30;96.90;;;;;;5046083;28;20403;-85
2022/05/16 12:34:35;;;;;;;9.95;2.95;;;24.20;97.00;;;;;;5039355;28;20048;-86
2022/05/16 12:37:05;;;;;;;9.70;2.50;;;24.30;97.30;;;;;;5030619;28;20048;-84
2022/05/16 12:39:48;;;;;;;11.40;2.63;;;24.40;98.00;;;;;;5045090;28;20112;-85
2022/05/16 12:42:54;;;;;;;10.45;3.00;;;24.40;98.30;;;;;;5047680;28;20071;-84
2022/05/16 12:45:54;;;;;;;9.30;2.92;;;24.40;97.50;;;;;;5054109;28;20052;-84
2022/05/16 12:48:48;;;;;;;9.57;2.60;;;24.40;98.40;;;;;;5047995;28;20073;-84
2022/05/16 12:51:39;;;;;;;10.73;2.70;;;24.30;98.70;;;;;;5052929;28;20087;-84
2022/05/16 12:54:23;;;;;;;10.30;2.95;;;24.20;98.90;;;;;;5033908;28;20037;-84
2022/05/16 12:56:51;;;;;;;14.10;3.00;;;23.80;99.90;;;;;;5028596;28;20394;-84
2022/05/16 12:59:41;;;;;;;9.48;3.10;;;24.20;99.90;;;;;;5018915;28;20041;-84
2022/05/16 13:02:24;;;;;;;9.70;2.85;;;24.10;99.90;;;;;;5006194;28;20115;-85
2022/05/16 13:05:15;;;;;;;9.93;3.00;;;24.10;99.90;;;;;;5004745;28;20069;-85
2022/05/16 13:07:59;;;;;;;11.55;2.90;;;24.10;99.90;;;;;;5005163;28;20109;-83
2022/05/16 13:10:57;;;;;;;9.32;3.17;;;24.00;99.90;;;;;;5017904;28;20232;-83
2022/05/16 13:13:42;;;;;;;10.75;2.78;;;24.00;99.90;;;;;;5002249;28;20045;-84
2022/05/16 13:16:27;;;;;;;10.70;2.90;;;24.00;99.90;;;;;;4999228;28;20046;-85
2022/05/16 13:19:17;;;;;;;10.10;3.20;;;24.00;99.90;;;;;;4993633;28;20042;-83
2022/05/16 13:21:55;;;;;;;12.25;3.00;;;24.10;99.90;;;;;;4989916;28;20034;-85
2022/05/16 13:24:23;;;;;;;11.80;3.20;;;24.10;99.90;;;;;;5002406;28;20042;-86
2022/05/16 13:29:39;;;;;;;10.43;3.30;;;24.30;99.90;;;;;;5001684;28;20056;-84
2022/05/16 13:32:17;;;;;;;11.73;3.10;;;24.30;99.90;;;;;;4979156;28;20046;-86
2022/05/16 13:34:51;;;;;;;11.07;3.38;;;24.40;99.90;;;;;;5003044;28;20042;-85
2022/05/16 13:37:21;;;;;;;11.20;3.40;;;24.40;99.90;;;;;;4989478;28;20042;-83
2022/05/16 13:39:50;;;;;;;11.27;3.30;;;24.30;99.90;;;;;;4993629;28;20042;-84
2022/05/16 13:42:21;;;;;;;11.35;3.75;;;24.30;99.90;;;;;;4975438;28;20507;-86